Time;durP1;ratioP1;P1;durP2;ratioP2;P2;SDS_P1;SDS_P2;PMS_P1;PMS_P2;Temp;Humidity;BMP_temperature;BMP_pressure;BME280_temperature;BME280_humidity;BME280_pressure;Samples;Min_cycle;Max_cycle;Signal;HPM_P1;HPM_P2
2023/01/29 00:01:53;;;;;;;143.18;42.35;;;-5.40;99.90;;;;;;5060759;28;20046;-75
2023/01/29 00:04:19;;;;;;;83.20;37.85;;;-5.50;99.90;;;;;;5055246;28;20040;-74
2023/01/29 00:06:46;;;;;;;89.47;36.40;;;-5.50;99.90;;;;;;5058082;28;20131;-74
2023/01/29 00:09:13;;;;;;;80.28;34.47;;;-5.50;99.90;;;;;;5059100;28;20041;-74
2023/01/29 00:11:40;;;;;;;81.20;35.63;;;-5.50;99.90;;;;;;5058996;28;20539;-74
2023/01/29 00:14:08;;;;;;;84.47;35.25;;;-5.50;99.90;;;;;;5065401;28;20146;-74
2023/01/29 00:16:35;;;;;;;135.10;41.05;;;-5.60;99.90;;;;;;5054246;28;20055;-74
2023/01/29 00:19:02;;;;;;;86.00;35.42;;;-5.60;99.90;;;;;;5081559;28;20047;-74
2023/01/29 00:21:30;;;;;;;90.10;35.95;;;-5.60;99.90;;;;;;5047791;28;20035;-74
2023/01/29 00:23:58;;;;;;;90.78;36.72;;;-5.50;99.90;;;;;;5059571;28;20398;-74
2023/01/29 00:26:25;;;;;;;84.75;32.50;;;-5.50;99.90;;;;;;5059801;28;20097;-74
2023/01/29 00:28:52;;;;;;;85.97;36.28;;;-5.40;99.90;;;;;;5076333;28;20032;-74
2023/01/29 00:31:21;;;;;;;78.60;35.17;;;-5.40;99.90;;;;;;5063642;28;20055;-74
2023/01/29 00:33:48;;;;;;;90.85;37.20;;;-5.50;99.90;;;;;;5070017;28;20036;-74
2023/01/29 00:36:17;;;;;;;94.15;36.90;;;-5.60;99.90;;;;;;5061736;28;20036;-74
2023/01/29 00:38:53;;;;;;;85.50;34.40;;;-5.60;99.90;;;;;;5067097;28;21057;-74
2023/01/29 00:46:53;;;;;;;82.35;34.47;;;-5.60;99.90;;;;;;5060401;28;20518;-76
2023/01/29 00:49:20;;;;;;;81.40;33.33;;;-5.80;99.90;;;;;;5064088;28;20040;-75
2023/01/29 00:54:32;;;;;;;85.50;34.72;;;-5.80;99.90;;;;;;5079111;28;20077;-75
2023/01/29 00:56:59;;;;;;;80.32;33.83;;;-6.00;99.90;;;;;;5093220;28;20250;-76
2023/01/29 00:59:26;;;;;;;81.95;33.80;;;-6.00;99.90;;;;;;5087613;28;20070;-76
2023/01/29 01:04:38;;;;;;;86.18;36.47;;;-6.10;99.90;;;;;;5074414;28;20151;-76
2023/01/29 01:07:05;;;;;;;93.30;37.50;;;-6.00;99.90;;;;;;5066679;28;20043;-75
2023/01/29 01:12:22;;;;;;;94.15;37.28;;;-6.00;99.90;;;;;;5063400;28;20223;-76
2023/01/29 01:14:49;;;;;;;89.82;35.80;;;-6.10;99.90;;;;;;5066154;28;20037;-76
2023/01/29 01:17:15;;;;;;;85.97;36.08;;;-6.00;99.90;;;;;;5063462;28;20124;-76
2023/01/29 01:19:42;;;;;;;88.18;34.88;;;-5.80;99.90;;;;;;5064443;28;20532;-73
2023/01/29 01:22:10;;;;;;;91.65;36.47;;;-5.90;99.90;;;;;;5061729;28;20040;-76
2023/01/29 01:24:37;;;;;;;92.75;38.35;;;-6.00;99.90;;;;;;5059345;28;20123;-76
2023/01/29 01:27:04;;;;;;;96.60;38.63;;;-6.10;99.90;;;;;;5061527;28;20036;-76
2023/01/29 01:29:31;;;;;;;84.85;34.53;;;-6.00;99.90;;;;;;5064569;28;20525;-76
2023/01/29 01:31:58;;;;;;;89.38;35.58;;;-6.00;99.90;;;;;;5064908;28;20410;-75
2023/01/29 01:34:28;;;;;;;93.22;37.83;;;-6.00;99.90;;;;;;5052437;28;20604;-76
2023/01/29 01:36:55;;;;;;;114.53;39.00;;;-6.00;99.90;;;;;;5070001;28;20047;-76
2023/01/29 01:39:23;;;;;;;91.28;37.58;;;-6.00;99.90;;;;;;5066530;28;20244;-75
2023/01/29 01:41:54;;;;;;;99.50;38.20;;;-5.90;99.90;;;;;;5062479;28;20490;-75
2023/01/29 01:44:52;;;;;;;94.32;38.38;;;-6.00;99.90;;;;;;5078646;28;20032;-75
2023/01/29 01:47:25;;;;;;;95.50;37.08;;;-6.00;99.90;;;;;;5069796;28;20079;-76
2023/01/29 01:49:53;;;;;;;94.95;37.10;;;-6.20;99.90;;;;;;5054626;28;20059;-76
2023/01/29 01:52:20;;;;;;;93.97;37.15;;;-6.20;99.90;;;;;;5075266;28;20055;-76
2023/01/29 01:54:48;;;;;;;104.35;41.83;;;-6.20;99.90;;;;;;5068746;28;20514;-76
2023/01/29 01:57:23;;;;;;;90.75;37.38;;;-6.10;99.90;;;;;;5057317;28;20050;-74
2023/01/29 01:59:59;;;;;;;99.90;39.47;;;-6.00;99.90;;;;;;5064698;28;20097;-76
2023/01/29 02:10:47;;;;;;;87.97;34.88;;;-6.00;99.90;;;;;;5064989;28;20044;-74
2023/01/29 02:13:16;;;;;;;90.40;37.65;;;-5.90;99.90;;;;;;5042703;28;20446;-74
2023/01/29 02:15:47;;;;;;;93.25;37.42;;;-5.90;99.90;;;;;;5053899;28;20797;-74
2023/01/29 02:18:20;;;;;;;93.63;38.15;;;-5.90;99.90;;;;;;5064982;28;20044;-74
2023/01/29 02:21:06;;;;;;;97.32;38.30;;;-5.90;99.90;;;;;;5059710;28;20043;-74
2023/01/29 02:23:48;;;;;;;91.68;36.33;;;-5.90;99.90;;;;;;5063898;28;20508;-74
2023/01/29 02:26:33;;;;;;;86.40;35.45;;;-5.80;99.90;;;;;;5058278;28;20040;-74
2023/01/29 02:29:21;;;;;;;;;;;-5.90;99.90;;;;;;5056874;28;20044;-74
2023/01/29 02:32:01;;;;;;;89.45;34.30;;;-5.80;99.90;;;;;;5064547;28;19955;-74
2023/01/29 02:38:06;;;;;;;93.97;36.05;;;-5.80;99.90;;;;;;5049209;28;20055;-74
2023/01/29 02:40:50;;;;;;;96.15;38.63;;;-5.70;99.90;;;;;;5065010;28;20539;-74
2023/01/29 02:43:37;;;;;;;92.85;38.95;;;-5.90;99.90;;;;;;5058925;28;20503;-74
2023/01/29 02:46:12;;;;;;;91.60;36.40;;;-5.90;99.90;;;;;;5061486;28;20506;-74
2023/01/29 02:48:52;;;;;;;89.97;37.88;;;-5.80;99.90;;;;;;5064185;28;20056;-74
2023/01/29 02:51:38;;;;;;;87.25;35.10;;;-5.80;99.90;;;;;;5053069;28;20037;-74
2023/01/29 02:54:20;;;;;;;95.20;38.10;;;-5.70;99.90;;;;;;5055304;28;20044;-74
2023/01/29 02:56:54;;;;;;;112.28;44.13;;;-5.70;99.90;;;;;;5039051;28;20048;-74
2023/01/29 02:59:26;;;;;;;106.28;40.78;;;-5.70;99.90;;;;;;5052935;28;20064;-75
2023/01/29 03:02:05;;;;;;;93.20;37.97;;;-5.70;99.90;;;;;;5051092;28;20127;-74
2023/01/29 03:04:41;;;;;;;96.05;38.35;;;-5.70;99.90;;;;;;5053955;28;20061;-74
2023/01/29 03:07:39;;;;;;;88.68;38.60;;;-5.60;99.90;;;;;;5059636;28;20583;-74
2023/01/29 03:10:01;;;;;;;83.60;36.88;;;-5.50;99.90;;;;;;5052748;28;20109;-74
2023/01/29 03:12:34;;;;;;;89.85;38.45;;;-5.50;99.90;;;;;;5049177;28;20509;-74
2023/01/29 03:15:15;;;;;;;95.75;40.33;;;-5.60;99.90;;;;;;5038348;28;21270;-74
2023/01/29 03:17:55;;;;;;;101.55;40.67;;;-5.50;99.90;;;;;;5052967;28;20048;-74
2023/01/29 03:20:28;;;;;;;86.88;38.20;;;-5.40;99.90;;;;;;5052655;28;20047;-74
2023/01/29 03:23:01;;;;;;;98.13;40.30;;;-5.40;99.90;;;;;;5053684;28;20052;-74
2023/01/29 03:34:23;;;;;;;99.03;40.05;;;-5.10;99.90;;;;;;5050542;28;20105;-74
2023/01/29 03:36:57;;;;;;;96.75;39.28;;;-5.10;99.90;;;;;;5053113;28;20036;-74
2023/01/29 03:39:29;;;;;;;102.40;41.25;;;-5.00;99.90;;;;;;5050798;28;20040;-74
2023/01/29 03:42:08;;;;;;;;;;;-4.90;99.90;;;;;;5055115;28;20060;-74
2023/01/29 03:44:52;;;;;;;83.60;37.63;;;-4.90;99.90;;;;;;5053615;28;19920;-74
2023/01/29 03:47:41;;;;;;;103.10;38.65;;;-4.90;99.90;;;;;;5050843;28;20051;-74
2023/01/29 03:50:48;;;;;;;88.78;38.72;;;-4.90;99.90;;;;;;5058206;28;20058;-74
2023/01/29 03:53:47;;;;;;;90.88;39.20;;;-5.00;99.90;;;;;;5052592;28;20093;-74
2023/01/29 03:56:32;;;;;;;94.03;39.53;;;-5.00;99.90;;;;;;5041193;28;20554;-74
2023/01/29 03:59:17;;;;;;;96.38;39.72;;;-5.00;99.90;;;;;;5058175;28;20063;-74
2023/01/29 04:02:08;;;;;;;90.72;38.90;;;-5.00;99.90;;;;;;5059150;28;20056;-74
2023/01/29 04:04:39;;;;;;;93.95;41.60;;;-5.00;99.90;;;;;;5070599;28;20083;-74
2023/01/29 04:07:11;;;;;;;99.88;42.40;;;-4.90;99.90;;;;;;5066906;28;20119;-74
2023/01/29 04:09:46;;;;;;;100.47;41.97;;;-4.90;99.90;;;;;;5058156;28;20418;-74
2023/01/29 04:12:14;;;;;;;;;;;-4.90;99.90;;;;;;5063318;28;20123;-73
2023/01/29 04:14:44;;;;;;;93.47;39.05;;;-4.80;99.90;;;;;;5060033;28;20430;-74
2023/01/29 04:17:26;;;;;;;99.50;40.92;;;-4.60;99.90;;;;;;5060523;28;20068;-74
2023/01/29 04:20:02;;;;;;;89.25;37.40;;;-4.60;99.90;;;;;;5075930;28;20047;-74
2023/01/29 04:22:36;;;;;;;102.13;41.63;;;-4.50;99.90;;;;;;5032140;28;20052;-74
2023/01/29 04:25:14;;;;;;;104.45;39.45;;;-4.50;99.90;;;;;;5054710;28;20052;-74
2023/01/29 04:28:12;;;;;;;106.90;40.97;;;-4.40;99.90;;;;;;5047414;28;20327;-74
2023/01/29 04:30:53;;;;;;;97.88;41.45;;;-4.50;99.90;;;;;;5065449;28;20582;-74
2023/01/29 04:33:57;;;;;;;98.88;40.90;;;-4.50;99.90;;;;;;5075491;28;20043;-74
2023/01/29 04:36:47;;;;;;;92.18;39.90;;;-4.40;99.90;;;;;;5067141;28;20044;-74
2023/01/29 04:39:35;;;;;;;96.90;38.60;;;-4.40;99.90;;;;;;5082378;28;20047;-74
2023/01/29 04:42:16;;;;;;;94.47;40.08;;;-4.30;99.90;;;;;;5084417;28;20429;-74
2023/01/29 04:45:17;;;;;;;97.18;39.80;;;-4.20;99.90;;;;;;5072500;28;20087;-74
2023/01/29 04:48:22;;;;;;;97.15;39.55;;;-4.20;99.90;;;;;;5055153;28;20059;-74
2023/01/29 04:50:59;;;;;;;95.75;40.75;;;-4.10;99.90;;;;;;5039639;28;20477;-74
2023/01/29 04:53:44;;;;;;;97.25;40.22;;;-4.10;99.90;;;;;;5066875;28;20047;-75
2023/01/29 04:56:14;;;;;;;109.38;41.13;;;-4.10;99.90;;;;;;5047842;28;20040;-74
2023/01/29 04:58:50;;;;;;;108.93;42.42;;;-4.00;99.90;;;;;;5069687;28;20581;-74
2023/01/29 05:01:18;;;;;;;107.15;41.67;;;-4.00;99.90;;;;;;5054868;28;20031;-74
2023/01/29 05:03:50;;;;;;;116.85;44.58;;;-3.90;99.90;;;;;;5085356;28;20039;-75
2023/01/29 05:06:18;;;;;;;126.30;47.55;;;-3.80;99.90;;;;;;5085144;28;21373;-75
2023/01/29 05:08:47;;;;;;;113.47;44.85;;;-3.70;99.90;;;;;;5069659;28;20043;-74
2023/01/29 05:11:16;;;;;;;116.15;46.00;;;-3.70;99.90;;;;;;5048829;28;20040;-75
2023/01/29 05:13:45;;;;;;;116.32;45.97;;;-3.60;99.90;;;;;;5070063;28;20563;-74
2023/01/29 05:16:15;;;;;;;111.95;44.33;;;-3.50;99.90;;;;;;5068959;28;20047;-74
2023/01/29 05:18:43;;;;;;;101.22;42.58;;;-3.40;99.90;;;;;;5071448;28;20041;-74
2023/01/29 05:21:10;;;;;;;96.00;40.85;;;-3.40;99.90;;;;;;5073173;28;20040;-74
2023/01/29 05:23:36;;;;;;;126.22;46.55;;;-3.40;99.90;;;;;;5076480;28;20043;-74
2023/01/29 05:26:03;;;;;;;111.32;46.78;;;-3.30;99.90;;;;;;5112403;28;20048;-74
2023/01/29 05:28:30;;;;;;;130.52;45.97;;;-3.10;99.90;;;;;;5073168;28;20074;-76
2023/01/29 05:30:57;;;;;;;116.60;47.65;;;-3.00;99.90;;;;;;5072898;28;20070;-75
2023/01/29 05:33:27;;;;;;;114.40;46.10;;;-3.00;99.90;;;;;;5063382;28;20097;-76
2023/01/29 05:35:55;;;;;;;115.70;45.72;;;-3.10;99.90;;;;;;5067914;28;20222;-76
2023/01/29 05:38:22;;;;;;;122.97;47.08;;;-3.10;99.90;;;;;;5064872;28;20510;-76
2023/01/29 05:40:49;;;;;;;115.55;42.83;;;-2.90;99.90;;;;;;5074756;28;20477;-76
2023/01/29 05:43:23;;;;;;;117.20;44.13;;;-2.80;99.90;;;;;;5063933;28;20042;-76
2023/01/29 05:45:55;;;;;;;125.03;47.97;;;-2.80;99.90;;;;;;5068490;28;20135;-76
2023/01/29 05:48:23;;;;;;;106.97;40.67;;;-2.70;99.90;;;;;;5062222;28;20376;-76
2023/01/29 05:50:50;;;;;;;106.75;42.45;;;-2.70;99.90;;;;;;5063283;28;20256;-75
2023/01/29 05:53:16;;;;;;;108.30;40.35;;;-3.00;99.90;;;;;;5065203;28;20040;-74
2023/01/29 05:55:44;;;;;;;121.28;46.03;;;-3.10;99.90;;;;;;5043865;28;20071;-74
2023/01/29 05:58:12;;;;;;;115.35;43.08;;;-3.10;99.90;;;;;;5078993;28;20370;-74
2023/01/29 06:00:39;;;;;;;117.10;45.45;;;-3.00;99.90;;;;;;5075847;28;20506;-74
2023/01/29 06:03:06;;;;;;;110.57;40.38;;;-3.00;99.90;;;;;;5064617;28;20221;-74
2023/01/29 06:05:37;;;;;;;109.22;41.47;;;-2.90;99.90;;;;;;5064094;28;20573;-75
2023/01/29 06:08:07;;;;;;;113.82;42.90;;;-2.90;99.90;;;;;;5061624;28;20051;-75
2023/01/29 06:10:34;;;;;;;114.15;43.17;;;-2.80;99.90;;;;;;5064064;28;20052;-75
2023/01/29 06:13:01;;;;;;;118.82;44.67;;;-2.80;99.90;;;;;;5057958;28;20038;-75
2023/01/29 06:15:28;;;;;;;115.22;44.55;;;-2.70;99.90;;;;;;5062121;28;20586;-75
2023/01/29 06:17:56;;;;;;;130.10;47.05;;;-2.60;99.90;;;;;;5055793;28;20048;-74
2023/01/29 06:20:23;;;;;;;118.93;46.55;;;-2.60;99.90;;;;;;5057697;28;20040;-74
2023/01/29 06:22:50;;;;;;;121.05;45.78;;;-2.50;99.90;;;;;;5065434;28;20410;-75
2023/01/29 06:25:16;;;;;;;119.25;45.63;;;-2.50;99.90;;;;;;5060513;28;20044;-75
2023/01/29 06:27:43;;;;;;;131.50;46.20;;;-2.50;99.90;;;;;;5067693;28;20048;-75
2023/01/29 06:30:10;;;;;;;120.45;45.03;;;-2.40;99.90;;;;;;5062861;28;20036;-76
2023/01/29 06:32:37;;;;;;;127.85;46.72;;;-2.40;99.90;;;;;;5047648;28;20045;-75
2023/01/29 06:35:04;;;;;;;122.78;48.15;;;-2.30;99.90;;;;;;5078494;28;20120;-75
2023/01/29 06:37:31;;;;;;;118.55;46.95;;;-2.30;99.90;;;;;;5056967;28;20550;-75
2023/01/29 06:39:57;;;;;;;120.32;48.78;;;-2.40;99.90;;;;;;5059640;28;20044;-76
2023/01/29 06:42:26;;;;;;;112.57;46.78;;;-2.40;99.90;;;;;;5073384;28;20111;-75
2023/01/29 06:44:56;;;;;;;123.35;50.88;;;-2.30;99.90;;;;;;5072337;28;20335;-74
2023/01/29 06:47:23;;;;;;;118.50;48.15;;;-2.30;99.90;;;;;;5068587;28;20536;-74
2023/01/29 06:49:50;;;;;;;110.07;45.05;;;-2.30;99.90;;;;;;5045901;28;20066;-74
2023/01/29 06:52:17;;;;;;;123.25;47.88;;;-2.30;99.90;;;;;;5056779;28;20190;-74
2023/01/29 06:54:44;;;;;;;111.03;47.20;;;-2.30;99.90;;;;;;5067471;28;20180;-73
2023/01/29 06:57:10;;;;;;;118.93;47.90;;;-2.20;99.90;;;;;;5060256;28;20032;-74
2023/01/29 06:59:37;;;;;;;128.02;52.33;;;-2.20;99.90;;;;;;5071995;28;20189;-74
2023/01/29 07:02:04;;;;;;;131.38;54.65;;;-2.20;99.90;;;;;;5054706;28;20040;-74
2023/01/29 07:04:30;;;;;;;131.38;52.90;;;-2.20;99.90;;;;;;5069630;28;20319;-74
2023/01/29 07:06:58;;;;;;;132.00;51.38;;;-2.20;99.90;;;;;;5059364;28;20146;-75
2023/01/29 07:09:25;;;;;;;134.68;53.58;;;-2.30;99.90;;;;;;5060851;28;20044;-75
2023/01/29 07:11:52;;;;;;;131.02;49.42;;;-2.20;99.90;;;;;;5059985;28;20502;-75
2023/01/29 07:14:19;;;;;;;137.23;57.47;;;-2.20;99.90;;;;;;5066165;28;20130;-75
2023/01/29 07:16:45;;;;;;;132.43;53.63;;;-2.10;99.90;;;;;;5073304;28;20422;-74
2023/01/29 07:19:12;;;;;;;121.43;47.83;;;-2.10;99.90;;;;;;5075334;28;20473;-75
2023/01/29 07:21:39;;;;;;;130.07;50.08;;;-2.00;99.90;;;;;;5064059;28;20134;-75
2023/01/29 07:24:05;;;;;;;120.43;49.53;;;-2.00;99.90;;;;;;5062698;28;20043;-75
2023/01/29 07:26:32;;;;;;;117.57;48.42;;;-2.00;99.90;;;;;;5064749;28;21303;-76
2023/01/29 07:28:59;;;;;;;125.70;50.40;;;-2.00;99.90;;;;;;5070618;28;20380;-77
2023/01/29 07:31:26;;;;;;;122.18;53.25;;;-1.90;99.90;;;;;;5054443;28;20058;-78
2023/01/29 07:33:52;;;;;;;130.93;52.70;;;-1.90;99.90;;;;;;5061981;28;20044;-77
2023/01/29 07:36:19;;;;;;;132.88;55.63;;;-2.00;99.90;;;;;;5048160;28;20131;-76
2023/01/29 07:38:49;;;;;;;119.25;50.83;;;-1.90;99.90;;;;;;5075845;28;20095;-76
2023/01/29 07:41:16;;;;;;;110.40;48.95;;;-1.80;99.90;;;;;;5056124;28;20042;-76
2023/01/29 07:43:44;;;;;;;118.03;46.67;;;-1.80;99.90;;;;;;5062496;28;20243;-76
2023/01/29 07:46:11;;;;;;;112.93;52.05;;;-1.70;99.90;;;;;;5062262;28;20219;-75
2023/01/29 07:48:38;;;;;;;111.93;46.70;;;-1.70;99.90;;;;;;5039278;28;20144;-75
2023/01/29 07:51:05;;;;;;;110.47;49.03;;;-1.70;99.90;;;;;;5050418;28;20123;-75
2023/01/29 07:53:32;;;;;;;104.75;43.97;;;-1.70;99.90;;;;;;5061335;28;20690;-75
2023/01/29 07:55:59;;;;;;;116.22;50.75;;;-1.60;99.90;;;;;;5061141;28;20123;-75
2023/01/29 07:58:25;;;;;;;107.82;49.97;;;-1.60;99.90;;;;;;5066928;28;20225;-75
2023/01/29 08:00:52;;;;;;;115.90;50.97;;;-1.50;99.90;;;;;;5057943;28;20089;-75
2023/01/29 08:03:19;;;;;;;133.65;59.35;;;-1.40;99.90;;;;;;5074698;28;20272;-74
2023/01/29 08:05:46;;;;;;;117.47;54.45;;;-1.30;99.90;;;;;;5079225;28;20051;-75
2023/01/29 08:08:13;;;;;;;115.70;53.00;;;-1.20;99.90;;;;;;5066432;28;20386;-75
2023/01/29 08:10:40;;;;;;;116.93;56.85;;;-1.20;99.90;;;;;;5067916;28;20051;-75
2023/01/29 08:13:07;;;;;;;113.85;52.90;;;-1.30;99.90;;;;;;5065094;28;20048;-74
2023/01/29 08:15:34;;;;;;;109.93;51.92;;;-1.20;99.90;;;;;;5068275;28;20121;-75
2023/01/29 08:18:04;;;;;;;111.53;52.50;;;-1.30;99.90;;;;;;5065343;28;20044;-74
2023/01/29 08:20:31;;;;;;;106.15;51.30;;;-1.40;99.90;;;;;;5062889;28;20102;-74
2023/01/29 08:23:03;;;;;;;103.20;50.47;;;-1.30;99.90;;;;;;5048195;28;20118;-74
2023/01/29 08:25:30;;;;;;;103.20;47.35;;;-1.20;99.90;;;;;;5078620;28;20131;-73
2023/01/29 08:27:58;;;;;;;105.10;49.70;;;-1.20;99.90;;;;;;5078163;28;20497;-74
2023/01/29 08:30:26;;;;;;;104.32;48.50;;;-1.20;99.90;;;;;;5076729;28;20032;-73
2023/01/29 08:32:53;;;;;;;93.72;45.47;;;-1.10;99.90;;;;;;5052554;28;20048;-75
2023/01/29 08:35:20;;;;;;;82.47;40.97;;;-1.10;99.90;;;;;;5054940;28;20115;-74
2023/01/29 08:37:59;;;;;;;79.38;40.10;;;-1.20;99.90;;;;;;5060709;28;20964;-75
2023/01/29 08:40:28;;;;;;;88.57;43.28;;;-1.20;99.90;;;;;;5061215;28;20055;-75
2023/01/29 08:42:59;;;;;;;88.63;43.45;;;-1.20;99.90;;;;;;5079321;28;20144;-76
2023/01/29 08:45:29;;;;;;;78.25;38.28;;;-1.10;99.90;;;;;;5058078;28;20514;-77
2023/01/29 08:47:56;;;;;;;78.38;38.05;;;-1.10;99.90;;;;;;5079026;28;20367;-75
2023/01/29 08:50:23;;;;;;;78.53;40.13;;;-1.10;99.90;;;;;;5056162;28;20568;-76
2023/01/29 08:52:50;;;;;;;73.32;38.90;;;-1.00;99.90;;;;;;5058384;28;20524;-76
2023/01/29 08:55:16;;;;;;;77.47;40.42;;;-1.00;99.90;;;;;;5064060;28;20051;-75
2023/01/29 08:57:44;;;;;;;76.63;38.50;;;-1.00;99.90;;;;;;5076151;28;20140;-75
2023/01/29 09:00:11;;;;;;;75.43;36.55;;;-1.10;99.90;;;;;;5046246;28;20526;-74
2023/01/29 09:02:38;;;;;;;65.30;34.95;;;-1.00;99.90;;;;;;5073806;28;20950;-74
2023/01/29 09:05:05;;;;;;;69.35;35.90;;;-1.00;99.90;;;;;;5075612;28;20032;-73
2023/01/29 09:07:32;;;;;;;67.07;34.63;;;-0.90;99.90;;;;;;5048088;28;20041;-73
2023/01/29 09:09:59;;;;;;;68.68;37.38;;;-1.00;99.90;;;;;;5064636;28;20067;-74
2023/01/29 09:12:25;;;;;;;65.88;34.10;;;-1.00;99.90;;;;;;5077750;28;20230;-73
2023/01/29 09:14:52;;;;;;;70.45;37.65;;;-1.00;99.90;;;;;;5063072;28;20098;-73
2023/01/29 09:17:19;;;;;;;71.18;35.00;;;-1.00;99.90;;;;;;5061524;28;20062;-75
2023/01/29 09:19:46;;;;;;;65.85;35.80;;;-1.00;99.90;;;;;;5067280;28;20370;-74
2023/01/29 09:22:13;;;;;;;70.28;35.33;;;-0.90;99.90;;;;;;5080050;28;20115;-74
2023/01/29 09:24:39;;;;;;;65.85;34.40;;;-0.80;99.90;;;;;;5060986;28;20048;-75
2023/01/29 09:27:06;;;;;;;65.10;34.95;;;-0.80;99.90;;;;;;5062299;28;20418;-74
2023/01/29 09:29:32;;;;;;;70.75;35.08;;;-0.80;99.90;;;;;;5057100;28;20123;-74
2023/01/29 09:32:05;;;;;;;77.80;39.92;;;-0.70;99.90;;;;;;5067097;28;20071;-78
2023/01/29 09:34:33;;;;;;;72.25;40.05;;;-0.70;99.90;;;;;;5056102;28;20123;-73
2023/01/29 09:37:00;;;;;;;68.35;38.60;;;-0.70;99.90;;;;;;5052625;28;20395;-74
2023/01/29 09:39:26;;;;;;;73.32;39.30;;;-0.60;99.90;;;;;;5062180;28;20083;-76
2023/01/29 09:41:59;;;;;;;72.75;39.45;;;-0.40;99.90;;;;;;5076776;28;20036;-76
2023/01/29 09:44:47;;;;;;;69.40;38.28;;;-0.30;99.90;;;;;;5063613;28;20040;-79
2023/01/29 09:47:16;;;;;;;69.68;38.47;;;-0.20;99.90;;;;;;5065954;28;20489;-77
2023/01/29 09:49:56;;;;;;;67.30;40.85;;;-0.20;99.90;;;;;;5079447;28;20099;-74
2023/01/29 09:52:27;;;;;;;66.55;41.00;;;-0.10;99.90;;;;;;5081549;22;20049;-74
2023/01/29 09:55:11;;;;;;;68.28;41.50;;;0.00;99.90;;;;;;5038662;28;20134;-74
2023/01/29 09:57:42;;;;;;;66.85;43.60;;;0.10;99.90;;;;;;5043715;28;20063;-72
2023/01/29 10:00:26;;;;;;;66.30;43.25;;;0.00;99.90;;;;;;5049866;28;20576;-72
2023/01/29 10:03:03;;;;;;;80.47;44.25;;;0.20;99.90;;;;;;5045187;28;20582;-72
2023/01/29 10:05:38;;;;;;;68.60;41.72;;;0.30;99.90;;;;;;5037923;28;20511;-74
2023/01/29 10:08:16;;;;;;;76.00;44.42;;;0.40;99.90;;;;;;5015929;28;20063;-74
2023/01/29 10:11:21;;;;;;;67.95;43.20;;;0.40;99.90;;;;;;5043194;28;20048;-74
2023/01/29 10:14:10;;;;;;;64.40;42.65;;;0.40;99.90;;;;;;5059844;28;21097;-73
2023/01/29 10:16:40;;;;;;;64.05;40.75;;;0.40;99.90;;;;;;5038737;28;20047;-75
2023/01/29 10:19:54;;;;;;;63.45;39.95;;;0.40;99.90;;;;;;5043274;28;20691;-72
2023/01/29 10:22:52;;;;;;;61.35;39.65;;;0.30;99.90;;;;;;5030419;28;20059;-73
2023/01/29 10:25:21;;;;;;;73.60;43.17;;;0.40;99.90;;;;;;5040726;28;20483;-75
2023/01/29 10:27:53;;;;;;;67.63;40.22;;;0.50;99.90;;;;;;5051703;28;20118;-75
2023/01/29 10:30:30;;;;;;;60.70;42.08;;;0.50;99.90;;;;;;5042664;28;20050;-73
2023/01/29 10:33:02;;;;;;;66.80;44.58;;;0.60;99.90;;;;;;5039200;28;20052;-73
2023/01/29 10:35:42;;;;;;;59.95;40.58;;;0.80;99.90;;;;;;5032744;28;20050;-73
2023/01/29 10:38:23;;;;;;;61.30;40.35;;;0.90;99.90;;;;;;5016159;28;20402;-75
2023/01/29 10:41:10;;;;;;;60.40;39.33;;;0.90;99.90;;;;;;5019157;28;20057;-73
2023/01/29 10:44:08;;;;;;;52.78;39.70;;;0.90;99.90;;;;;;5000677;28;20037;-73
2023/01/29 10:46:59;;;;;;;58.53;40.15;;;0.90;99.90;;;;;;5040661;28;20127;-73
2023/01/29 10:49:46;;;;;;;53.17;38.55;;;0.80;99.90;;;;;;5049322;28;20044;-73
2023/01/29 10:52:34;;;;;;;49.78;38.25;;;0.80;99.90;;;;;;5035813;28;20095;-73
2023/01/29 10:55:36;;;;;;;50.97;36.85;;;0.80;99.90;;;;;;5013950;28;20079;-73
2023/01/29 10:58:11;;;;;;;46.67;36.47;;;0.90;99.90;;;;;;5042734;28;20123;-73
2023/01/29 11:00:40;;;;;;;48.97;37.67;;;0.80;99.90;;;;;;5022795;28;20048;-74
2023/01/29 11:03:23;;;;;;;52.90;36.30;;;0.80;99.90;;;;;;5035814;28;20565;-74
2023/01/29 11:06:19;;;;;;;45.13;37.05;;;0.90;99.90;;;;;;5029941;28;20049;-74
2023/01/29 11:09:03;;;;;;;47.70;37.50;;;0.90;99.90;;;;;;5014141;28;20176;-74
2023/01/29 11:11:53;;;;;;;46.65;36.97;;;0.90;99.90;;;;;;5032080;28;20037;-74
2023/01/29 11:14:30;;;;;;;43.28;35.40;;;0.90;99.90;;;;;;5026488;28;20136;-74
2023/01/29 11:16:57;;;;;;;50.03;38.65;;;1.00;99.90;;;;;;5031576;28;20072;-73
2023/01/29 11:19:42;;;;;;;55.83;40.50;;;1.00;99.90;;;;;;5031662;28;20044;-74
2023/01/29 11:22:13;;;;;;;47.00;37.05;;;1.20;99.90;;;;;;5014512;28;20553;-74
2023/01/29 11:24:40;;;;;;;48.10;38.22;;;1.10;99.90;;;;;;5016508;28;20068;-74
2023/01/29 11:27:20;;;;;;;50.65;38.35;;;1.20;99.90;;;;;;5031816;28;20043;-73
2023/01/29 11:29:48;;;;;;;46.05;37.63;;;1.30;99.90;;;;;;5018011;28;20060;-74
2023/01/29 11:32:20;;;;;;;45.15;37.63;;;1.30;99.90;;;;;;5036339;28;20055;-74
2023/01/29 11:35:21;;;;;;;45.47;36.47;;;1.30;99.90;;;;;;5031952;28;21372;-74
2023/01/29 11:37:48;;;;;;;46.67;38.40;;;1.30;99.90;;;;;;4990601;28;20049;-74
2023/01/29 11:40:17;;;;;;;43.55;38.65;;;1.20;99.90;;;;;;5017676;28;20032;-74
2023/01/29 11:42:46;;;;;;;46.75;38.05;;;1.20;99.90;;;;;;5014275;28;20075;-74
2023/01/29 11:45:21;;;;;;;48.95;39.13;;;1.20;99.90;;;;;;5013902;28;20134;-74
2023/01/29 11:47:51;;;;;;;46.40;37.90;;;1.30;99.90;;;;;;5032988;28;20053;-74
2023/01/29 11:50:26;;;;;;;40.88;35.60;;;1.30;99.90;;;;;;5026086;28;20041;-73
2023/01/29 11:52:53;;;;;;;43.90;39.33;;;1.40;99.90;;;;;;5020512;28;20313;-74
2023/01/29 11:55:30;;;;;;;45.10;40.28;;;1.30;99.90;;;;;;5035908;28;20041;-74
2023/01/29 11:58:28;;;;;;;61.03;50.43;;;1.40;99.90;;;;;;5016713;28;20077;-74
2023/01/29 12:00:57;;;;;;;51.67;42.40;;;1.50;99.90;;;;;;5012168;28;21746;-74
2023/01/29 12:03:38;;;;;;;45.55;40.75;;;1.40;99.90;;;;;;5035983;28;20029;-73
2023/01/29 12:06:13;;;;;;;50.67;43.28;;;1.40;99.90;;;;;;5031253;28;20110;-73
2023/01/29 12:08:39;;;;;;;49.20;39.97;;;1.50;99.90;;;;;;5023970;28;20049;-73
2023/01/29 12:11:12;;;;;;;44.45;38.40;;;1.50;99.90;;;;;;5035452;28;20048;-73
2023/01/29 12:13:42;;;;;;;45.55;38.42;;;1.50;99.90;;;;;;5032106;28;20126;-74
2023/01/29 12:16:08;;;;;;;41.60;37.45;;;1.50;99.90;;;;;;5031015;28;20044;-73
2023/01/29 12:18:39;;;;;;;43.17;38.30;;;1.50;99.90;;;;;;5024373;28;20450;-75
2023/01/29 12:21:42;;;;;;;42.60;37.35;;;1.60;99.90;;;;;;5029235;28;20366;-73
2023/01/29 12:24:36;;;;;;;40.92;36.17;;;1.70;99.90;;;;;;5035780;28;20041;-73
2023/01/29 12:27:18;;;;;;;49.42;40.30;;;1.80;99.90;;;;;;5015090;28;20039;-73
2023/01/29 12:30:11;;;;;;;39.88;35.95;;;1.80;99.90;;;;;;5031354;28;20043;-73
2023/01/29 12:32:44;;;;;;;45.15;37.63;;;1.90;99.90;;;;;;5013761;28;20053;-73
2023/01/29 12:35:27;;;;;;;43.17;38.72;;;1.90;99.90;;;;;;5027043;28;20049;-73
2023/01/29 12:38:20;;;;;;;43.53;39.00;;;1.80;99.90;;;;;;5028070;28;20040;-73
2023/01/29 12:40:56;;;;;;;44.05;37.50;;;1.80;99.90;;;;;;5023063;28;20135;-73
2023/01/29 12:43:36;;;;;;;41.72;37.10;;;1.70;99.90;;;;;;5016175;28;20041;-73
2023/01/29 12:46:09;;;;;;;42.45;37.55;;;1.70;99.90;;;;;;5017310;28;20041;-73
2023/01/29 12:48:41;;;;;;;37.13;33.38;;;1.70;99.90;;;;;;5029550;28;20244;-73
2023/01/29 12:51:18;;;;;;;38.03;34.10;;;1.70;99.90;;;;;;5035418;28;20040;-73
2023/01/29 12:54:16;;;;;;;40.30;36.22;;;1.70;99.90;;;;;;5049549;28;20487;-75
2023/01/29 12:56:49;;;;;;;40.03;35.88;;;1.70;99.90;;;;;;5016317;28;20044;-72
2023/01/29 12:59:35;;;;;;;39.00;35.20;;;1.80;99.90;;;;;;5042193;28;20055;-72
2023/01/29 13:02:17;;;;;;;40.10;35.90;;;1.80;99.90;;;;;;5036423;28;20045;-72
2023/01/29 13:04:53;;;;;;;38.58;34.65;;;1.80;99.90;;;;;;5023902;28;20392;-72
2023/01/29 13:07:27;;;;;;;39.35;35.33;;;1.70;99.90;;;;;;5037508;28;20503;-75
2023/01/29 13:10:09;;;;;;;41.45;36.92;;;1.60;99.90;;;;;;5012150;28;20452;-73
2023/01/29 13:12:38;;;;;;;40.55;36.17;;;1.60;99.90;;;;;;4998629;28;20386;-73
2023/01/29 13:15:29;;;;;;;43.13;37.65;;;1.60;99.90;;;;;;5020715;28;20057;-73
2023/01/29 13:18:05;;;;;;;39.38;35.22;;;1.60;99.90;;;;;;5012386;28;20371;-73
2023/01/29 13:20:34;;;;;;;38.50;34.65;;;1.60;99.90;;;;;;5033372;28;20045;-73
2023/01/29 13:23:26;;;;;;;44.25;37.65;;;1.60;99.90;;;;;;5034139;28;20151;-73
2023/01/29 13:25:53;;;;;;;43.10;37.13;;;1.60;99.90;;;;;;5012773;28;20053;-73
2023/01/29 13:28:24;;;;;;;45.03;40.20;;;1.60;99.90;;;;;;5021975;28;20045;-72
2023/01/29 13:31:26;;;;;;;42.17;36.45;;;1.60;99.90;;;;;;5014971;28;20064;-72
2023/01/29 13:34:04;;;;;;;42.55;37.95;;;1.60;99.90;;;;;;5020166;28;20136;-72
2023/01/29 13:36:31;;;;;;;40.33;35.28;;;1.60;99.90;;;;;;5033461;28;20502;-72